sensor_id;sensor_type;location;lat;lon;timestamp;pressure;altitude;pressure_sealevel;temperature;humidity
68948;BME280;55996;49.546;7.400;2022-09-17T00:00:39;98426.44;;;12.34;96.96
68948;BME280;55996;49.546;7.400;2022-09-17T00:03:06;98435.72;;;12.41;95.28
68948;BME280;55996;49.546;7.400;2022-09-17T00:05:34;98417.03;;;12.09;94.98
68948;BME280;55996;49.546;7.400;2022-09-17T00:08:02;98422.22;;;12.11;96.44
68948;BME280;55996;49.546;7.400;2022-09-17T00:10:29;98415.13;;;12.13;96.04
68948;BME280;55996;49.546;7.400;2022-09-17T00:12:54;98431.63;;;11.94;96.53
68948;BME280;55996;49.546;7.400;2022-09-17T00:15:20;98431.31;;;12.02;97.12
68948;BME280;55996;49.546;7.400;2022-09-17T00:17:45;98422.81;;;11.95;95.13
68948;BME280;55996;49.546;7.400;2022-09-17T00:20:11;98416.38;;;12.04;95.39
68948;BME280;55996;49.546;7.400;2022-09-17T00:22:37;98425.16;;;12.03;95.06
68948;BME280;55996;49.546;7.400;2022-09-17T00:25:04;98421.81;;;12.00;93.44
68948;BME280;55996;49.546;7.400;2022-09-17T00:27:30;98412.34;;;11.97;94.81
68948;BME280;55996;49.546;7.400;2022-09-17T00:29:56;98420.19;;;11.95;96.74
68948;BME280;55996;49.546;7.400;2022-09-17T00:32:22;98411.84;;;11.87;97.08
68948;BME280;55996;49.546;7.400;2022-09-17T00:34:48;98412.50;;;11.92;98.02
68948;BME280;55996;49.546;7.400;2022-09-17T00:37:19;98415.56;;;11.82;96.41
68948;BME280;55996;49.546;7.400;2022-09-17T00:39:44;98421.19;;;11.72;96.10
68948;BME280;55996;49.546;7.400;2022-09-17T00:42:14;98417.94;;;11.67;96.98
68948;BME280;55996;49.546;7.400;2022-09-17T00:44:44;98425.91;;;11.64;97.18
68948;BME280;55996;49.546;7.400;2022-09-17T00:49:46;98425.31;;;11.57;98.87
68948;BME280;55996;49.546;7.400;2022-09-17T00:52:17;98430.81;;;11.72;98.08
68948;BME280;55996;49.546;7.400;2022-09-17T00:54:51;98434.47;;;11.68;96.87
68948;BME280;55996;49.546;7.400;2022-09-17T00:57:18;98423.75;;;11.74;99.27
68948;BME280;55996;49.546;7.400;2022-09-17T00:59:44;98430.28;;;11.63;98.12
68948;BME280;55996;49.546;7.400;2022-09-17T01:02:09;98434.34;;;11.71;97.95
68948;BME280;55996;49.546;7.400;2022-09-17T01:04:35;98433.22;;;11.34;97.33
68948;BME280;55996;49.546;7.400;2022-09-17T01:09:54;98429.59;;;11.58;98.04
68948;BME280;55996;49.546;7.400;2022-09-17T01:12:51;98430.47;;;11.59;98.03
68948;BME280;55996;49.546;7.400;2022-09-17T01:19:01;98429.59;;;11.58;98.35
68948;BME280;55996;49.546;7.400;2022-09-17T01:24:58;98431.13;;;11.64;99.47
68948;BME280;55996;49.546;7.400;2022-09-17T01:32:59;98443.38;;;11.63;96.46
68948;BME280;55996;49.546;7.400;2022-09-17T01:35:42;98440.59;;;11.46;95.60
68948;BME280;55996;49.546;7.400;2022-09-17T01:41:01;98442.78;;;11.35;97.29
68948;BME280;55996;49.546;7.400;2022-09-17T01:46:37;98447.19;;;11.12;96.91
68948;BME280;55996;49.546;7.400;2022-09-17T01:49:06;98441.72;;;11.18;97.07
68948;BME280;55996;49.546;7.400;2022-09-17T01:51:39;98436.09;;;11.27;98.49
68948;BME280;55996;49.546;7.400;2022-09-17T01:54:09;98439.44;;;11.31;97.46
68948;BME280;55996;49.546;7.400;2022-09-17T01:56:39;98437.75;;;11.30;98.49
68948;BME280;55996;49.546;7.400;2022-09-17T01:59:13;98442.19;;;11.28;100.00
68948;BME280;55996;49.546;7.400;2022-09-17T02:01:42;98449.06;;;11.53;100.00
68948;BME280;55996;49.546;7.400;2022-09-17T02:04:15;98451.97;;;11.67;100.00
68948;BME280;55996;49.546;7.400;2022-09-17T02:06:46;98433.50;;;11.70;100.00
68948;BME280;55996;49.546;7.400;2022-09-17T02:09:22;98443.63;;;12.00;100.00
68948;BME280;55996;49.546;7.400;2022-09-17T02:11:52;98442.91;;;12.17;100.00
68948;BME280;55996;49.546;7.400;2022-09-17T02:14:40;98441.38;;;12.11;100.00
68948;BME280;55996;49.546;7.400;2022-09-17T02:17:33;98440.53;;;12.32;100.00
68948;BME280;55996;49.546;7.400;2022-09-17T02:20:01;98443.16;;;12.32;100.00
68948;BME280;55996;49.546;7.400;2022-09-17T02:22:46;98440.25;;;12.38;100.00
68948;BME280;55996;49.546;7.400;2022-09-17T02:26:16;98450.06;;;12.33;99.51
68948;BME280;55996;49.546;7.400;2022-09-17T02:30:49;98445.91;;;12.29;99.38
68948;BME280;55996;49.546;7.400;2022-09-17T02:33:15;98429.72;;;12.19;97.64
68948;BME280;55996;49.546;7.400;2022-09-17T02:35:42;98435.69;;;12.22;97.21
68948;BME280;55996;49.546;7.400;2022-09-17T02:38:08;98438.94;;;12.27;97.63
68948;BME280;55996;49.546;7.400;2022-09-17T02:40:40;98444.06;;;12.31;98.51
68948;BME280;55996;49.546;7.400;2022-09-17T02:56:42;98449.69;;;12.21;97.31
68948;BME280;55996;49.546;7.400;2022-09-17T02:59:30;98451.97;;;12.29;97.21
68948;BME280;55996;49.546;7.400;2022-09-17T03:02:08;98452.56;;;12.36;97.43
68948;BME280;55996;49.546;7.400;2022-09-17T03:04:38;98445.16;;;12.46;96.69
68948;BME280;55996;49.546;7.400;2022-09-17T03:07:08;98440.84;;;12.45;97.14
68948;BME280;55996;49.546;7.400;2022-09-17T03:09:36;98439.06;;;12.45;98.15
68948;BME280;55996;49.546;7.400;2022-09-17T03:12:02;98442.97;;;12.55;96.58
68948;BME280;55996;49.546;7.400;2022-09-17T03:14:28;98442.25;;;12.52;97.29
68948;BME280;55996;49.546;7.400;2022-09-17T03:16:53;98450.25;;;12.49;96.15
68948;BME280;55996;49.546;7.400;2022-09-17T03:19:19;98446.50;;;12.54;97.03
68948;BME280;55996;49.546;7.400;2022-09-17T03:21:44;98451.31;;;12.64;96.92
68948;BME280;55996;49.546;7.400;2022-09-17T03:24:09;98441.84;;;12.61;96.76
68948;BME280;55996;49.546;7.400;2022-09-17T03:26:36;98445.38;;;12.60;96.98
68948;BME280;55996;49.546;7.400;2022-09-17T03:29:02;98455.03;;;12.59;97.49
68948;BME280;55996;49.546;7.400;2022-09-17T03:31:27;98442.81;;;12.58;97.14
68948;BME280;55996;49.546;7.400;2022-09-17T03:33:53;98445.81;;;12.70;97.02
68948;BME280;55996;49.546;7.400;2022-09-17T03:36:19;98435.94;;;12.75;97.83
68948;BME280;55996;49.546;7.400;2022-09-17T03:38:44;98455.81;;;12.81;95.80
68948;BME280;55996;49.546;7.400;2022-09-17T03:41:10;98445.88;;;12.87;97.59
68948;BME280;55996;49.546;7.400;2022-09-17T03:43:35;98443.13;;;12.90;95.66
68948;BME280;55996;49.546;7.400;2022-09-17T03:46:01;98457.03;;;12.93;95.51
68948;BME280;55996;49.546;7.400;2022-09-17T03:48:27;98457.66;;;12.98;96.62
68948;BME280;55996;49.546;7.400;2022-09-17T03:50:53;98456.38;;;13.06;97.34
68948;BME280;55996;49.546;7.400;2022-09-17T03:53:19;98457.22;;;13.07;93.92
68948;BME280;55996;49.546;7.400;2022-09-17T03:55:44;98467.44;;;13.13;95.15
68948;BME280;55996;49.546;7.400;2022-09-17T03:58:10;98466.81;;;13.08;94.74
68948;BME280;55996;49.546;7.400;2022-09-17T04:00:35;98465.03;;;13.08;95.24
68948;BME280;55996;49.546;7.400;2022-09-17T04:03:04;98474.31;;;13.16;95.08
68948;BME280;55996;49.546;7.400;2022-09-17T04:05:29;98475.38;;;13.12;96.04
68948;BME280;55996;49.546;7.400;2022-09-17T04:07:55;98473.56;;;13.14;94.63
68948;BME280;55996;49.546;7.400;2022-09-17T04:10:20;98479.50;;;13.17;96.14
68948;BME280;55996;49.546;7.400;2022-09-17T04:12:47;98465.97;;;13.07;94.75
68948;BME280;55996;49.546;7.400;2022-09-17T04:15:12;98460.44;;;13.14;94.63
68948;BME280;55996;49.546;7.400;2022-09-17T04:17:38;98466.44;;;13.16;94.09
68948;BME280;55996;49.546;7.400;2022-09-17T04:20:03;98468.94;;;13.19;94.94
68948;BME280;55996;49.546;7.400;2022-09-17T04:22:30;98459.06;;;13.24;94.43
68948;BME280;55996;49.546;7.400;2022-09-17T04:24:55;98468.72;;;13.23;94.69
68948;BME280;55996;49.546;7.400;2022-09-17T04:27:21;98471.41;;;13.22;95.80
68948;BME280;55996;49.546;7.400;2022-09-17T04:29:46;98471.19;;;13.27;96.39
68948;BME280;55996;49.546;7.400;2022-09-17T04:32:12;98470.34;;;13.26;96.77
68948;BME280;55996;49.546;7.400;2022-09-17T04:34:37;98459.88;;;13.24;95.80
68948;BME280;55996;49.546;7.400;2022-09-17T04:37:03;98471.88;;;13.30;94.09
68948;BME280;55996;49.546;7.400;2022-09-17T04:39:28;98471.41;;;13.22;95.36
68948;BME280;55996;49.546;7.400;2022-09-17T04:41:54;98473.13;;;13.04;96.45
68948;BME280;55996;49.546;7.400;2022-09-17T04:44:19;98473.22;;;13.02;96.73
68948;BME280;55996;49.546;7.400;2022-09-17T04:46:45;98464.75;;;12.96;97.93
68948;BME280;55996;49.546;7.400;2022-09-17T04:49:10;98471.06;;;12.91;98.47
68948;BME280;55996;49.546;7.400;2022-09-17T04:51:36;98475.44;;;12.91;97.96
68948;BME280;55996;49.546;7.400;2022-09-17T04:54:02;98459.44;;;12.78;97.30
68948;BME280;55996;49.546;7.400;2022-09-17T04:56:27;98482.31;;;12.74;97.96
68948;BME280;55996;49.546;7.400;2022-09-17T04:58:52;98485.94;;;12.72;99.65
68948;BME280;55996;49.546;7.400;2022-09-17T05:01:18;98497.16;;;12.75;99.32
68948;BME280;55996;49.546;7.400;2022-09-17T05:03:44;98493.38;;;12.81;100.00
68948;BME280;55996;49.546;7.400;2022-09-17T05:06:10;98496.44;;;12.72;100.00
68948;BME280;55996;49.546;7.400;2022-09-17T05:08:36;98506.94;;;12.72;100.00
68948;BME280;55996;49.546;7.400;2022-09-17T05:11:01;98503.94;;;12.61;99.69
68948;BME280;55996;49.546;7.400;2022-09-17T05:13:27;98504.94;;;12.58;100.00
68948;BME280;55996;49.546;7.400;2022-09-17T05:15:55;98489.31;;;12.55;100.00
68948;BME280;55996;49.546;7.400;2022-09-17T05:18:21;98493.84;;;12.51;100.00
68948;BME280;55996;49.546;7.400;2022-09-17T05:20:47;98501.44;;;12.57;100.00
68948;BME280;55996;49.546;7.400;2022-09-17T05:23:12;98509.19;;;12.61;100.00
68948;BME280;55996;49.546;7.400;2022-09-17T05:25:38;98494.22;;;12.63;100.00
68948;BME280;55996;49.546;7.400;2022-09-17T05:28:03;98507.91;;;12.69;100.00
68948;BME280;55996;49.546;7.400;2022-09-17T05:30:29;98497.78;;;12.81;100.00
68948;BME280;55996;49.546;7.400;2022-09-17T05:33:01;98503.94;;;12.80;99.24
68948;BME280;55996;49.546;7.400;2022-09-17T05:35:28;98506.66;;;12.78;100.00
68948;BME280;55996;49.546;7.400;2022-09-17T05:37:58;98504.59;;;12.85;100.00
68948;BME280;55996;49.546;7.400;2022-09-17T05:40:24;98504.19;;;12.94;98.44
68948;BME280;55996;49.546;7.400;2022-09-17T05:42:50;98503.28;;;12.95;96.84
68948;BME280;55996;49.546;7.400;2022-09-17T05:45:15;98498.03;;;12.95;96.93
68948;BME280;55996;49.546;7.400;2022-09-17T05:47:41;98502.72;;;13.07;96.73
68948;BME280;55996;49.546;7.400;2022-09-17T05:50:07;98500.84;;;13.10;96.63
68948;BME280;55996;49.546;7.400;2022-09-17T05:52:32;98503.19;;;13.16;98.55
68948;BME280;55996;49.546;7.400;2022-09-17T05:54:58;98513.56;;;13.19;97.22
68948;BME280;55996;49.546;7.400;2022-09-17T05:57:23;98518.44;;;13.27;97.30
68948;BME280;55996;49.546;7.400;2022-09-17T05:59:49;98520.94;;;13.30;96.16
68948;BME280;55996;49.546;7.400;2022-09-17T06:02:14;98514.09;;;13.26;95.82
68948;BME280;55996;49.546;7.400;2022-09-17T06:04:39;98533.78;;;13.36;95.44
68948;BME280;55996;49.546;7.400;2022-09-17T06:07:05;98535.44;;;13.37;94.71
68948;BME280;55996;49.546;7.400;2022-09-17T06:09:35;98537.31;;;13.35;95.35
68948;BME280;55996;49.546;7.400;2022-09-17T06:12:05;98537.06;;;13.41;94.74
68948;BME280;55996;49.546;7.400;2022-09-17T06:14:32;98533.91;;;13.33;94.46
68948;BME280;55996;49.546;7.400;2022-09-17T06:16:57;98521.84;;;13.29;95.37
68948;BME280;55996;49.546;7.400;2022-09-17T06:19:22;98521.91;;;13.27;94.65
68948;BME280;55996;49.546;7.400;2022-09-17T06:21:48;98519.59;;;13.40;95.37
68948;BME280;55996;49.546;7.400;2022-09-17T06:24:15;98520.03;;;13.50;93.08
68948;BME280;55996;49.546;7.400;2022-09-17T06:26:40;98531.41;;;13.68;92.67
68948;BME280;55996;49.546;7.400;2022-09-17T06:29:06;98537.34;;;13.91;91.94
68948;BME280;55996;49.546;7.400;2022-09-17T06:31:31;98533.78;;;14.09;90.36
68948;BME280;55996;49.546;7.400;2022-09-17T06:33:57;98537.63;;;14.37;90.39
68948;BME280;55996;49.546;7.400;2022-09-17T06:36:22;98535.25;;;14.67;86.61
68948;BME280;55996;49.546;7.400;2022-09-17T06:38:48;98532.22;;;14.75;85.91
68948;BME280;55996;49.546;7.400;2022-09-17T06:41:13;98541.91;;;14.91;84.04
68948;BME280;55996;49.546;7.400;2022-09-17T06:43:41;98539.97;;;14.94;85.59
68948;BME280;55996;49.546;7.400;2022-09-17T06:46:06;98542.81;;;15.07;84.81
68948;BME280;55996;49.546;7.400;2022-09-17T06:48:34;98548.50;;;15.15;83.83
68948;BME280;55996;49.546;7.400;2022-09-17T06:51:02;98549.44;;;15.30;84.74
68948;BME280;55996;49.546;7.400;2022-09-17T06:53:28;98550.66;;;15.41;83.59
68948;BME280;55996;49.546;7.400;2022-09-17T06:55:56;98555.50;;;15.48;84.04
68948;BME280;55996;49.546;7.400;2022-09-17T06:58:23;98548.38;;;15.51;82.99
68948;BME280;55996;49.546;7.400;2022-09-17T07:00:48;98542.41;;;15.47;83.57
68948;BME280;55996;49.546;7.400;2022-09-17T07:03:13;98526.75;;;15.44;84.57
68948;BME280;55996;49.546;7.400;2022-09-17T07:05:42;98533.28;;;15.69;83.30
68948;BME280;55996;49.546;7.400;2022-09-17T07:08:08;98528.50;;;15.91;82.01
68948;BME280;55996;49.546;7.400;2022-09-17T07:10:35;98540.69;;;15.94;81.65
68948;BME280;55996;49.546;7.400;2022-09-17T07:13:00;98553.94;;;15.76;78.06
68948;BME280;55996;49.546;7.400;2022-09-17T07:15:26;98552.44;;;15.56;79.56
68948;BME280;55996;49.546;7.400;2022-09-17T07:17:52;98557.00;;;15.53;77.85
68948;BME280;55996;49.546;7.400;2022-09-17T07:20:17;98551.34;;;15.44;80.59
68948;BME280;55996;49.546;7.400;2022-09-17T07:22:43;98550.56;;;15.42;81.24
68948;BME280;55996;49.546;7.400;2022-09-17T07:25:10;98558.13;;;15.48;83.50
68948;BME280;55996;49.546;7.400;2022-09-17T07:27:35;98548.28;;;15.52;81.78
68948;BME280;55996;49.546;7.400;2022-09-17T07:30:01;98546.78;;;15.78;81.81
68948;BME280;55996;49.546;7.400;2022-09-17T07:32:30;98536.72;;;15.87;80.62
68948;BME280;55996;49.546;7.400;2022-09-17T07:34:55;98547.53;;;16.12;78.68
68948;BME280;55996;49.546;7.400;2022-09-17T07:37:21;98541.72;;;16.22;79.56
68948;BME280;55996;49.546;7.400;2022-09-17T07:39:47;98544.84;;;15.98;76.57
68948;BME280;55996;49.546;7.400;2022-09-17T07:42:12;98552.75;;;15.98;78.03
68948;BME280;55996;49.546;7.400;2022-09-17T07:44:37;98548.66;;;15.92;77.61
68948;BME280;55996;49.546;7.400;2022-09-17T07:47:03;98560.84;;;15.79;79.74
68948;BME280;55996;49.546;7.400;2022-09-17T07:49:29;98549.78;;;15.72;77.52
68948;BME280;55996;49.546;7.400;2022-09-17T07:51:55;98547.06;;;15.74;79.01
68948;BME280;55996;49.546;7.400;2022-09-17T07:54:21;98549.44;;;15.62;79.49
68948;BME280;55996;49.546;7.400;2022-09-17T07:56:47;98551.50;;;15.57;75.34
68948;BME280;55996;49.546;7.400;2022-09-17T07:59:12;98550.31;;;15.63;77.13
68948;BME280;55996;49.546;7.400;2022-09-17T08:01:38;98540.72;;;15.62;77.13
68948;BME280;55996;49.546;7.400;2022-09-17T08:04:03;98546.22;;;15.57;76.68
68948;BME280;55996;49.546;7.400;2022-09-17T08:06:35;98538.50;;;15.54;76.63
68948;BME280;55996;49.546;7.400;2022-09-17T08:09:00;98539.09;;;15.59;77.32
68948;BME280;55996;49.546;7.400;2022-09-17T08:11:28;98551.06;;;15.65;78.41
68948;BME280;55996;49.546;7.400;2022-09-17T08:13:54;98555.06;;;15.72;77.87
68948;BME280;55996;49.546;7.400;2022-09-17T08:16:21;98557.34;;;15.78;78.82
68948;BME280;55996;49.546;7.400;2022-09-17T08:18:47;98542.47;;;15.77;75.80
68948;BME280;55996;49.546;7.400;2022-09-17T08:21:16;98543.13;;;15.81;77.98
68948;BME280;55996;49.546;7.400;2022-09-17T08:23:43;98541.44;;;15.96;74.68
68948;BME280;55996;49.546;7.400;2022-09-17T08:28:39;98547.13;;;16.04;72.48
68948;BME280;55996;49.546;7.400;2022-09-17T08:31:07;98548.63;;;16.08;74.83
68948;BME280;55996;49.546;7.400;2022-09-17T08:33:34;98544.09;;;16.26;72.77
68948;BME280;55996;49.546;7.400;2022-09-17T08:36:00;98551.38;;;16.37;71.82
68948;BME280;55996;49.546;7.400;2022-09-17T08:38:29;98540.66;;;16.55;68.74
68948;BME280;55996;49.546;7.400;2022-09-17T08:46:08;98558.03;;;17.46;69.34
68948;BME280;55996;49.546;7.400;2022-09-17T08:48:49;98560.47;;;17.76;66.55
68948;BME280;55996;49.546;7.400;2022-09-17T08:51:34;98563.25;;;18.02;64.54
68948;BME280;55996;49.546;7.400;2022-09-17T08:54:07;98568.19;;;18.21;65.11
68948;BME280;55996;49.546;7.400;2022-09-17T08:56:37;98559.75;;;18.29;63.44
68948;BME280;55996;49.546;7.400;2022-09-17T09:07:06;98567.72;;;18.01;64.42
68948;BME280;55996;49.546;7.400;2022-09-17T09:09:46;98559.31;;;18.35;62.96
68948;BME280;55996;49.546;7.400;2022-09-17T09:12:27;98553.31;;;18.59;60.65
68948;BME280;55996;49.546;7.400;2022-09-17T09:15:02;98555.16;;;18.97;60.92
68948;BME280;55996;49.546;7.400;2022-09-17T09:17:37;98546.31;;;19.59;59.16
68948;BME280;55996;49.546;7.400;2022-09-17T09:20:14;98542.13;;;20.05;56.11
68948;BME280;55996;49.546;7.400;2022-09-17T09:22:47;98537.59;;;20.19;55.06
68948;BME280;55996;49.546;7.400;2022-09-17T09:33:27;98550.53;;;20.23;53.95
68948;BME280;55996;49.546;7.400;2022-09-17T09:35:55;98547.34;;;20.65;55.49
68948;BME280;55996;49.546;7.400;2022-09-17T09:41:08;98556.31;;;20.28;53.61
68948;BME280;55996;49.546;7.400;2022-09-17T09:44:00;98551.44;;;20.11;53.38
68948;BME280;55996;49.546;7.400;2022-09-17T09:57:12;98568.47;;;19.34;53.03
68948;BME280;55996;49.546;7.400;2022-09-17T09:59:39;98561.25;;;19.23;54.50
68948;BME280;55996;49.546;7.400;2022-09-17T10:02:06;98562.22;;;19.22;54.62
68948;BME280;55996;49.546;7.400;2022-09-17T10:04:31;98562.88;;;19.13;53.38
68948;BME280;55996;49.546;7.400;2022-09-17T10:07:10;98562.34;;;19.21;53.02
68948;BME280;55996;49.546;7.400;2022-09-17T10:09:37;98561.72;;;19.04;56.18
68948;BME280;55996;49.546;7.400;2022-09-17T10:14:42;98579.72;;;19.12;58.77
68948;BME280;55996;49.546;7.400;2022-09-17T10:17:22;98575.63;;;19.08;57.30
68948;BME280;55996;49.546;7.400;2022-09-17T10:22:36;98588.81;;;18.69;57.13
68948;BME280;55996;49.546;7.400;2022-09-17T10:25:05;98589.00;;;18.53;59.35
68948;BME280;55996;49.546;7.400;2022-09-17T10:27:31;98597.84;;;18.26;58.51
68948;BME280;55996;49.546;7.400;2022-09-17T10:32:32;98603.16;;;17.84;59.91
68948;BME280;55996;49.546;7.400;2022-09-17T10:35:00;98598.53;;;17.73;60.61
68948;BME280;55996;49.546;7.400;2022-09-17T10:37:40;98614.34;;;17.75;59.09
68948;BME280;55996;49.546;7.400;2022-09-17T10:42:43;98613.91;;;16.66;60.66
68948;BME280;55996;49.546;7.400;2022-09-17T10:45:25;98612.72;;;16.71;61.33
68948;BME280;55996;49.546;7.400;2022-09-17T10:47:53;98612.66;;;16.42;62.05
68948;BME280;55996;49.546;7.400;2022-09-17T10:50:30;98607.91;;;16.78;61.76
68948;BME280;55996;49.546;7.400;2022-09-17T10:53:00;98603.28;;;16.82;62.85
68948;BME280;55996;49.546;7.400;2022-09-17T10:55:37;98607.31;;;17.03;66.31
68948;BME280;55996;49.546;7.400;2022-09-17T10:58:21;98603.22;;;17.26;65.08
68948;BME280;55996;49.546;7.400;2022-09-17T11:04:09;98598.44;;;17.33;60.52
68948;BME280;55996;49.546;7.400;2022-09-17T11:06:55;98600.38;;;17.58;64.01
68948;BME280;55996;49.546;7.400;2022-09-17T11:20:12;98596.41;;;17.93;63.75
68948;BME280;55996;49.546;7.400;2022-09-17T11:23:11;98603.22;;;17.97;64.42
68948;BME280;55996;49.546;7.400;2022-09-17T11:25:45;98602.22;;;17.15;66.30
68948;BME280;55996;49.546;7.400;2022-09-17T11:37:05;98592.41;;;17.17;69.51
68948;BME280;55996;49.546;7.400;2022-09-17T11:42:41;98581.78;;;17.60;71.85
68948;BME280;55996;49.546;7.400;2022-09-17T11:45:31;98568.72;;;17.71;68.50
68948;BME280;55996;49.546;7.400;2022-09-17T11:48:11;98564.69;;;17.93;64.76
68948;BME280;55996;49.546;7.400;2022-09-17T11:50:57;98566.13;;;17.84;68.01
68948;BME280;55996;49.546;7.400;2022-09-17T11:53:46;98575.00;;;17.83;70.93
68948;BME280;55996;49.546;7.400;2022-09-17T11:56:32;98575.13;;;17.82;73.21
68948;BME280;55996;49.546;7.400;2022-09-17T11:59:17;98582.44;;;17.91;77.33
68948;BME280;55996;49.546;7.400;2022-09-17T12:04:37;98576.19;;;17.92;77.29
68948;BME280;55996;49.546;7.400;2022-09-17T12:10:42;98571.38;;;17.71;74.54
68948;BME280;55996;49.546;7.400;2022-09-17T12:13:18;98559.88;;;17.58;73.31
68948;BME280;55996;49.546;7.400;2022-09-17T12:21:47;98557.59;;;17.66;71.48
68948;BME280;55996;49.546;7.400;2022-09-17T12:24:30;98562.25;;;17.90;70.94
68948;BME280;55996;49.546;7.400;2022-09-17T12:27:36;98563.06;;;18.05;69.17
68948;BME280;55996;49.546;7.400;2022-09-17T12:41:20;98564.31;;;17.57;71.93
68948;BME280;55996;49.546;7.400;2022-09-17T12:51:55;98546.78;;;17.42;72.14
68948;BME280;55996;49.546;7.400;2022-09-17T13:00:02;98528.91;;;17.18;71.46
68948;BME280;55996;49.546;7.400;2022-09-17T13:02:34;98530.13;;;17.13;69.96
68948;BME280;55996;49.546;7.400;2022-09-17T13:13:47;98506.47;;;17.80;72.17
68948;BME280;55996;49.546;7.400;2022-09-17T13:16:55;98503.31;;;17.88;68.45
68948;BME280;55996;49.546;7.400;2022-09-17T13:19:34;98495.88;;;18.08;67.04
68948;BME280;55996;49.546;7.400;2022-09-17T13:22:05;98498.00;;;18.28;68.31
68948;BME280;55996;49.546;7.400;2022-09-17T13:24:34;98499.63;;;18.31;66.81
68948;BME280;55996;49.546;7.400;2022-09-17T13:27:03;98498.34;;;18.23;64.61
68948;BME280;55996;49.546;7.400;2022-09-17T13:37:39;98496.03;;;17.64;67.46
68948;BME280;55996;49.546;7.400;2022-09-17T13:40:27;98486.94;;;17.68;64.96
68948;BME280;55996;49.546;7.400;2022-09-17T13:42:55;98491.28;;;17.69;64.39
68948;BME280;55996;49.546;7.400;2022-09-17T13:45:22;98491.97;;;17.86;63.33
68948;BME280;55996;49.546;7.400;2022-09-17T13:50:26;98506.78;;;18.16;65.34
68948;BME280;55996;49.546;7.400;2022-09-17T13:52:53;98507.81;;;18.00;65.90
68948;BME280;55996;49.546;7.400;2022-09-17T13:57:58;98519.97;;;17.75;63.82
68948;BME280;55996;49.546;7.400;2022-09-17T14:16:45;98541.63;;;17.12;76.23
68948;BME280;55996;49.546;7.400;2022-09-17T14:21:39;98541.84;;;17.23;72.06
68948;BME280;55996;49.546;7.400;2022-09-17T14:24:22;98547.47;;;17.31;70.19
68948;BME280;55996;49.546;7.400;2022-09-17T14:29:45;98553.78;;;16.85;71.64
68948;BME280;55996;49.546;7.400;2022-09-17T14:32:22;98542.00;;;16.76;73.07
68948;BME280;55996;49.546;7.400;2022-09-17T14:34:54;98556.88;;;16.63;76.14
68948;BME280;55996;49.546;7.400;2022-09-17T14:37:22;98554.97;;;16.51;74.00
68948;BME280;55996;49.546;7.400;2022-09-17T14:39:49;98554.75;;;16.39;75.01
68948;BME280;55996;49.546;7.400;2022-09-17T14:42:20;98553.41;;;16.18;74.70
68948;BME280;55996;49.546;7.400;2022-09-17T14:44:59;98561.84;;;15.76;79.57
68948;BME280;55996;49.546;7.400;2022-09-17T14:47:26;98576.13;;;15.72;87.80
68948;BME280;55996;49.546;7.400;2022-09-17T14:49:53;98562.47;;;15.65;91.35
68948;BME280;55996;49.546;7.400;2022-09-17T14:52:25;98571.31;;;15.64;90.76
68948;BME280;55996;49.546;7.400;2022-09-17T14:57:43;98564.41;;;15.62;91.63
68948;BME280;55996;49.546;7.400;2022-09-17T15:00:21;98556.91;;;15.70;91.52
68948;BME280;55996;49.546;7.400;2022-09-17T15:02:53;98554.13;;;15.73;92.37
68948;BME280;55996;49.546;7.400;2022-09-17T15:05:29;98551.88;;;15.97;89.50
68948;BME280;55996;49.546;7.400;2022-09-17T15:10:43;98550.19;;;16.27;89.64
68948;BME280;55996;49.546;7.400;2022-09-17T15:13:16;98550.00;;;16.46;89.02
68948;BME280;55996;49.546;7.400;2022-09-17T15:16:03;98550.00;;;16.60;88.12
68948;BME280;55996;49.546;7.400;2022-09-17T15:18:34;98553.50;;;16.61;86.90
68948;BME280;55996;49.546;7.400;2022-09-17T15:21:01;98546.97;;;16.52;86.77
68948;BME280;55996;49.546;7.400;2022-09-17T15:23:31;98548.81;;;16.36;86.39
68948;BME280;55996;49.546;7.400;2022-09-17T15:25:58;98541.25;;;16.29;85.92
68948;BME280;55996;49.546;7.400;2022-09-17T15:28:35;98539.69;;;16.56;88.10
68948;BME280;55996;49.546;7.400;2022-09-17T15:31:03;98529.25;;;16.54;89.55
68948;BME280;55996;49.546;7.400;2022-09-17T15:33:30;98534.44;;;16.70;89.06
68948;BME280;55996;49.546;7.400;2022-09-17T15:38:29;98529.53;;;16.64;85.16
68948;BME280;55996;49.546;7.400;2022-09-17T15:43:44;98529.75;;;16.61;85.64
68948;BME280;55996;49.546;7.400;2022-09-17T15:46:29;98525.97;;;16.80;84.56
68948;BME280;55996;49.546;7.400;2022-09-17T15:48:58;98521.16;;;16.72;83.63
68948;BME280;55996;49.546;7.400;2022-09-17T15:51:33;98527.78;;;16.65;83.42
68948;BME280;55996;49.546;7.400;2022-09-17T15:54:00;98528.31;;;16.55;84.20
68948;BME280;55996;49.546;7.400;2022-09-17T16:04:19;98534.31;;;16.43;82.36
68948;BME280;55996;49.546;7.400;2022-09-17T16:09:59;98527.53;;;16.39;84.17
68948;BME280;55996;49.546;7.400;2022-09-17T16:12:26;98526.66;;;16.24;80.14
68948;BME280;55996;49.546;7.400;2022-09-17T16:14:55;98523.88;;;16.11;81.29
68948;BME280;55996;49.546;7.400;2022-09-17T16:17:30;98526.63;;;16.09;82.26
68948;BME280;55996;49.546;7.400;2022-09-17T16:22:37;98538.09;;;16.08;83.16
68948;BME280;55996;49.546;7.400;2022-09-17T16:25:03;98543.41;;;16.23;81.96
68948;BME280;55996;49.546;7.400;2022-09-17T16:27:32;98538.56;;;16.45;80.37
68948;BME280;55996;49.546;7.400;2022-09-17T16:30:05;98551.59;;;16.63;78.94
68948;BME280;55996;49.546;7.400;2022-09-17T16:32:30;98545.66;;;16.74;77.65
68948;BME280;55996;49.546;7.400;2022-09-17T16:34:56;98544.38;;;16.81;77.48
68948;BME280;55996;49.546;7.400;2022-09-17T16:37:21;98538.50;;;16.90;75.45
68948;BME280;55996;49.546;7.400;2022-09-17T16:39:47;98552.44;;;16.78;72.61
68948;BME280;55996;49.546;7.400;2022-09-17T16:42:13;98558.78;;;16.61;75.09
68948;BME280;55996;49.546;7.400;2022-09-17T16:44:38;98566.34;;;16.37;74.82
68948;BME280;55996;49.546;7.400;2022-09-17T16:47:04;98580.34;;;16.23;76.24
68948;BME280;55996;49.546;7.400;2022-09-17T16:49:29;98592.41;;;16.27;79.63
68948;BME280;55996;49.546;7.400;2022-09-17T16:51:55;98589.56;;;16.16;88.95